Time;durP1;ratioP1;P1;durP2;ratioP2;P2;SDS_P1;SDS_P2;PMS_P1;PMS_P2;Temp;Humidity;BMP_temperature;BMP_pressure;BME280_temperature;BME280_humidity;BME280_pressure;Samples;Min_cycle;Max_cycle;Signal;HPM_P1;HPM_P2
2023/01/04 00:09:48;;;;;;;11.38;7.70;;;;;;;5.00;90.22;101843.09;4990986;28;20096;-64
2023/01/04 01:53:47;;;;;;;8.38;5.03;;;;;;;4.54;93.40;101731.63;4984350;28;20128;-66
2023/01/04 02:04:53;;;;;;;10.27;5.45;;;;;;;4.52;93.33;101717.78;4975895;28;20602;-64
2023/01/04 02:25:48;;;;;;;9.20;4.55;;;;;;;4.79;91.17;101655.59;4973060;28;20032;-66
2023/01/04 03:20:37;;;;;;;6.55;4.22;;;;;;;4.50;91.17;101536.16;4981850;28;20533;-67
2023/01/04 03:54:13;;;;;;;9.98;5.38;;;;;;;4.38;91.97;101473.84;5004135;28;20057;-66
2023/01/04 04:09:37;;;;;;;10.40;4.78;;;;;;;4.32;91.40;101456.53;4988132;28;20406;-64
2023/01/04 04:52:08;;;;;;;9.68;5.13;;;;;;;4.07;94.44;101345.00;5005552;28;20051;-67
2023/01/04 05:25:37;;;;;;;7.68;4.13;;;;;;;4.32;94.72;101268.88;4986664;28;20403;-66
2023/01/04 06:12:17;;;;;;;5.20;3.53;;;;;;;4.88;93.25;101144.06;4990607;28;20038;-63
2023/01/04 06:23:22;;;;;;;6.15;3.78;;;;;;;4.89;93.47;101132.72;4990059;28;20115;-64
2023/01/04 06:56:43;;;;;;;7.72;3.20;;;;;;;5.26;92.45;101063.81;5001154;28;20620;-63
2023/01/04 06:59:10;;;;;;;5.57;3.53;;;;;;;5.24;92.17;101048.22;4995208;28;20046;-63
2023/01/04 07:01:37;;;;;;;7.10;3.50;;;;;;;5.32;91.63;101046.22;5002557;28;20569;-63
2023/01/04 07:04:04;;;;;;;8.07;3.13;;;;;;;5.40;91.47;101064.25;4998202;28;20066;-64
2023/01/04 07:06:31;;;;;;;7.10;2.80;;;;;;;5.47;90.89;101057.09;5009679;28;20059;-64
2023/01/04 07:08:59;;;;;;;8.82;3.17;;;;;;;5.47;90.54;101041.44;5003316;28;20081;-65
2023/01/04 07:11:26;;;;;;;7.25;3.47;;;;;;;5.57;90.64;101030.63;4998670;28;20437;-64
2023/01/04 07:13:53;;;;;;;5.68;2.83;;;;;;;5.67;89.89;101031.19;5009334;28;20591;-63
2023/01/04 07:16:20;;;;;;;8.85;2.92;;;;;;;5.71;89.76;101016.28;5001751;28;20049;-63
2023/01/04 07:18:47;;;;;;;5.25;2.60;;;;;;;5.72;89.19;101033.66;4999419;28;20054;-64
2023/01/04 07:21:14;;;;;;;4.95;2.45;;;;;;;5.78;89.34;101026.50;5009454;28;20053;-65
2023/01/04 07:23:43;;;;;;;5.53;2.50;;;;;;;5.78;89.17;101017.81;4995954;28;20065;-64
2023/01/04 07:26:10;;;;;;;6.88;2.67;;;;;;;5.83;89.63;101005.44;4988498;28;20042;-63
2023/01/04 07:31:23;;;;;;;7.43;2.92;;;;;;;5.90;90.42;101004.34;4994749;28;20056;-64
2023/01/04 07:33:50;;;;;;;7.43;2.60;;;;;;;5.89;91.08;100997.38;4990948;28;20061;-63
2023/01/04 07:36:17;;;;;;;6.38;3.08;;;;;;;5.96;91.59;101003.31;5006027;28;20053;-63
2023/01/04 07:38:44;;;;;;;6.43;2.88;;;;;;;5.90;92.26;100985.16;5010776;28;20056;-63
2023/01/04 07:41:12;;;;;;;5.50;2.67;;;;;;;5.87;93.05;100987.91;5003733;28;20049;-64
2023/01/04 07:43:39;;;;;;;8.70;2.80;;;;;;;5.87;93.94;100988.75;4991014;28;20059;-62
2023/01/04 07:46:06;;;;;;;4.40;2.60;;;;;;;5.84;94.70;100979.25;5006629;28;20076;-64
2023/01/04 07:48:33;;;;;;;9.52;2.70;;;;;;;5.85;95.57;100967.03;5010686;28;20054;-66
2023/01/04 07:51:00;;;;;;;5.55;2.50;;;;;;;5.85;95.74;100961.81;5006229;28;20056;-64
2023/01/04 07:53:28;;;;;;;5.97;2.20;;;;;;;5.85;95.69;100961.81;5007023;28;20451;-69
2023/01/04 07:55:56;;;;;;;7.20;2.72;;;;;;;5.84;96.45;100960.09;5004626;28;20051;-64
2023/01/04 07:58:24;;;;;;;4.90;2.40;;;;;;;5.82;97.40;100941.88;5010216;28;20662;-64
2023/01/04 08:00:51;;;;;;;5.72;2.88;;;;;;;5.90;96.99;100936.41;4992092;28;20546;-63
2023/01/04 08:03:18;;;;;;;5.50;2.30;;;;;;;5.89;97.66;100934.66;5007923;28;20050;-65
2023/01/04 08:05:46;;;;;;;5.50;2.38;;;;;;;5.95;98.02;100938.88;5010198;28;20141;-65
2023/01/04 08:08:13;;;;;;;6.28;3.10;;;;;;;5.80;99.22;100933.22;5010109;28;20137;-65
2023/01/04 08:10:40;;;;;;;5.65;2.72;;;;;;;5.84;99.80;100920.91;5001418;28;20061;-65
2023/01/04 08:13:08;;;;;;;5.18;2.60;;;;;;;5.84;100.00;100905.25;4998310;28;20074;-65
2023/01/04 08:15:35;;;;;;;6.50;2.92;;;;;;;5.88;100.00;100906.00;5003095;28;20269;-64
2023/01/04 08:18:03;;;;;;;7.22;2.70;;;;;;;5.84;100.00;100910.47;5002602;28;20065;-63
2023/01/04 08:20:30;;;;;;;6.38;1.95;;;;;;;5.91;100.00;100905.91;4995565;28;20046;-64
2023/01/04 08:22:57;;;;;;;4.03;2.30;;;;;;;5.98;100.00;100896.94;4984255;28;20407;-65
2023/01/04 08:25:24;;;;;;;5.47;2.35;;;;;;;5.99;100.00;100886.47;4994114;28;20082;-64
2023/01/04 08:27:51;;;;;;;9.50;3.38;;;;;;;6.02;100.00;100882.88;5000088;28;20551;-65
2023/01/04 08:30:18;;;;;;;9.40;2.63;;;;;;;5.93;100.00;100891.03;4989574;28;20133;-65
2023/01/04 08:32:46;;;;;;;6.00;2.63;;;;;;;5.90;100.00;100899.81;4992636;28;20057;-65
2023/01/04 08:35:13;;;;;;;4.43;2.35;;;;;;;5.86;100.00;100892.16;5001599;28;20505;-65
2023/01/04 08:37:40;;;;;;;7.97;2.53;;;;;;;5.97;100.00;100883.03;5007396;28;20062;-65
2023/01/04 08:40:08;;;;;;;3.28;2.10;;;;;;;5.98;100.00;100881.28;5007717;28;20052;-65
2023/01/04 08:42:35;;;;;;;6.20;3.15;;;;;;;5.91;100.00;100896.28;5000278;28;20046;-64
2023/01/04 08:45:03;;;;;;;4.53;2.58;;;;;;;5.89;100.00;100874.56;4995462;28;20146;-65
2023/01/04 08:47:31;;;;;;;6.45;2.60;;;;;;;5.88;100.00;100872.88;5004541;28;20042;-64
2023/01/04 08:49:59;;;;;;;7.22;2.88;;;;;;;5.93;100.00;100857.06;5007672;28;20045;-65
2023/01/04 08:52:35;;;;;;;5.13;2.75;;;;;;;6.06;100.00;100879.25;5008200;28;20490;-63
2023/01/04 08:55:03;;;;;;;6.88;2.58;;;;;;;6.07;100.00;100867.88;5002246;28;20046;-65
2023/01/04 08:57:38;;;;;;;7.93;2.78;;;;;;;6.05;100.00;100880.16;4996441;28;20054;-64
2023/01/04 09:00:06;;;;;;;6.57;2.78;;;;;;;5.98;100.00;100878.66;4985344;28;20409;-64
2023/01/04 09:02:33;;;;;;;3.95;2.40;;;;;;;6.06;100.00;100864.41;4984230;28;20054;-65
2023/01/04 09:05:02;;;;;;;8.40;2.40;;;;;;;6.07;100.00;100881.78;5001171;28;20136;-65
2023/01/04 09:07:31;;;;;;;6.80;2.85;;;;;;;6.05;100.00;100867.94;5007922;28;20057;-65
2023/01/04 09:09:59;;;;;;;4.82;2.70;;;;;;;6.01;100.00;100850.66;4993284;28;20513;-64
2023/01/04 09:12:26;;;;;;;4.97;3.03;;;;;;;6.08;100.00;100860.00;4996917;28;20046;-64
2023/01/04 09:14:54;;;;;;;6.82;3.50;;;;;;;6.08;100.00;100852.16;4995078;28;20054;-65
2023/01/04 09:17:21;;;;;;;7.43;3.08;;;;;;;6.14;100.00;100866.75;4998820;28;20052;-64
2023/01/04 09:19:48;;;;;;;7.88;3.00;;;;;;;6.13;100.00;100857.22;4994250;28;20055;-64
2023/01/04 09:22:16;;;;;;;8.27;3.30;;;;;;;6.14;100.00;100855.44;4992783;28;20062;-65
2023/01/04 09:24:43;;;;;;;7.32;3.05;;;;;;;6.20;100.00;100869.13;4991311;28;20054;-64
2023/01/04 09:27:10;;;;;;;6.63;3.05;;;;;;;6.22;100.00;100840.34;5000571;28;20057;-64
2023/01/04 09:29:37;;;;;;;6.78;2.83;;;;;;;6.24;100.00;100841.97;4992263;28;20054;-66
2023/01/04 09:32:05;;;;;;;6.10;3.00;;;;;;;6.20;100.00;100829.91;4992246;28;20050;-65
2023/01/04 09:34:38;;;;;;;4.72;2.97;;;;;;;6.25;100.00;100827.97;4993560;28;20141;-64
2023/01/04 09:37:05;;;;;;;5.95;3.03;;;;;;;6.24;100.00;100823.66;4993959;28;20069;-64
2023/01/04 09:39:32;;;;;;;6.10;2.97;;;;;;;6.28;100.00;100820.03;4999955;28;20699;-63
2023/01/04 09:42:02;;;;;;;6.25;3.30;;;;;;;6.29;100.00;100802.56;5001858;28;20046;-64
2023/01/04 09:44:45;;;;;;;6.35;3.33;;;;;;;6.35;100.00;100791.91;4983811;28;20077;-64
2023/01/04 09:47:43;;;;;;;6.00;3.17;;;;;;;6.38;100.00;100790.91;5003138;28;20133;-65
2023/01/04 09:50:22;;;;;;;9.13;3.35;;;;;;;6.35;100.00;100797.13;4977377;28;20067;-65
2023/01/04 09:52:52;;;;;;;5.60;3.25;;;;;;;6.43;100.00;100784.59;4999998;28;20434;-61
2023/01/04 09:55:32;;;;;;;7.25;3.60;;;;;;;6.37;100.00;100792.69;5001885;28;20053;-64
2023/01/04 09:58:13;;;;;;;8.10;3.55;;;;;;;6.34;100.00;100779.72;5010005;28;20057;-65
2023/01/04 10:00:44;;;;;;;6.68;3.80;;;;;;;6.41;100.00;100772.50;4989586;28;20064;-63
2023/01/04 10:03:16;;;;;;;7.15;4.10;;;;;;;6.46;100.00;100794.94;5001888;28;20055;-65
2023/01/04 10:05:43;;;;;;;9.80;3.03;;;;;;;6.42;100.00;100779.44;4997403;28;20392;-65
2023/01/04 10:08:18;;;;;;;7.00;3.38;;;;;;;6.39;100.00;100745.53;4999031;28;20414;-66
2023/01/04 10:10:50;;;;;;;6.30;3.55;;;;;;;6.44;100.00;100760.16;5014081;28;20054;-65
2023/01/04 10:13:37;;;;;;;6.35;3.50;;;;;;;6.45;100.00;100756.63;4998506;28;20046;-65
2023/01/04 10:16:44;;;;;;;10.52;3.88;;;;;;;6.44;100.00;100744.47;5011811;28;20058;-65
2023/01/04 10:19:34;;;;;;;6.57;3.22;;;;;;;6.50;100.00;100738.97;4994304;28;20046;-66
2023/01/04 10:22:27;;;;;;;6.70;3.35;;;;;;;6.43;100.00;100724.44;4984810;28;20466;-65
2023/01/04 10:25:14;;;;;;;8.95;3.92;;;;;;;6.40;100.00;100715.88;5003547;28;20216;-65
2023/01/04 10:28:04;;;;;;;7.45;3.42;;;;;;;6.40;100.00;100713.28;4984746;28;20060;-65
2023/01/04 10:30:50;;;;;;;5.38;3.35;;;;;;;6.45;100.00;100700.88;4986857;28;20073;-65
2023/01/04 10:33:27;;;;;;;6.70;3.50;;;;;;;6.51;100.00;100705.81;4998623;28;20056;-63
2023/01/04 10:35:55;;;;;;;5.50;3.50;;;;;;;6.51;100.00;100698.84;4985575;28;20427;-63
2023/01/04 10:38:29;;;;;;;7.30;3.38;;;;;;;6.52;100.00;100679.59;5007534;28;20042;-63
2023/01/04 10:40:58;;;;;;;7.82;3.50;;;;;;;6.56;100.00;100693.41;4994508;28;20149;-64
2023/01/04 10:47:26;;;;;;;7.25;3.70;;;;;;;6.60;100.00;100697.59;4998223;28;20572;-63
2023/01/04 10:49:55;;;;;;;6.68;3.30;;;;;;;6.66;100.00;100667.72;4976513;28;20054;-62
2023/01/04 10:52:42;;;;;;;6.90;3.15;;;;;;;6.64;100.00;100662.56;4978157;28;20474;-63
2023/01/04 10:55:16;;;;;;;;;;;;;;;6.62;100.00;100679.22;4991259;28;20149;-64
2023/01/04 10:58:05;;;;;;;5.18;3.38;;;;;;;6.62;100.00;100650.44;5000083;28;19960;-64
2023/01/04 11:00:49;;;;;;;10.95;4.13;;;;;;;6.57;100.00;100624.47;4996648;28;20601;-64
2023/01/04 11:03:32;;;;;;;4.47;2.95;;;;;;;6.61;100.00;100633.91;4993598;28;20400;-63
2023/01/04 11:06:09;;;;;;;6.40;3.30;;;;;;;6.66;100.00;100623.25;4976753;28;20376;-64
2023/01/04 11:08:41;;;;;;;5.60;3.67;;;;;;;6.69;100.00;100621.34;4973454;28;20064;-64
2023/01/04 11:11:33;;;;;;;7.28;3.17;;;;;;;6.73;100.00;100617.69;4989165;28;20491;-64
2023/01/04 11:14:01;;;;;;;6.18;3.72;;;;;;;6.73;100.00;100624.69;5001746;28;20164;-64
2023/01/04 11:16:29;;;;;;;5.45;3.22;;;;;;;6.73;100.00;100622.09;4973905;28;20050;-63
2023/01/04 11:18:56;;;;;;;5.65;3.50;;;;;;;6.77;100.00;100600.09;4992539;28;20133;-63
2023/01/04 11:21:27;;;;;;;5.20;3.17;;;;;;;6.78;100.00;100604.41;5001806;28;20045;-64
2023/01/04 11:23:59;;;;;;;6.18;3.15;;;;;;;6.75;100.00;100584.44;4998094;28;20085;-64
2023/01/04 11:26:47;;;;;;;6.68;3.35;;;;;;;6.80;100.00;100585.13;4994534;28;20149;-63
2023/01/04 11:29:36;;;;;;;7.00;3.35;;;;;;;6.83;100.00;100605.06;4995555;28;20140;-64
2023/01/04 11:32:13;;;;;;;6.50;3.38;;;;;;;6.78;100.00;100586.94;4982084;28;20133;-63
2023/01/04 11:34:56;;;;;;;4.28;3.17;;;;;;;6.83;100.00;100591.97;5001904;28;20367;-63
2023/01/04 11:37:37;;;;;;;6.93;3.40;;;;;;;6.85;100.00;100580.53;4998209;28;20510;-64
2023/01/04 11:40:16;;;;;;;5.40;3.25;;;;;;;6.93;100.00;100585.41;5000000;28;20053;-64
2023/01/04 11:42:48;;;;;;;9.70;3.55;;;;;;;6.99;100.00;100579.06;4994835;28;20537;-64
2023/01/04 11:45:23;;;;;;;7.00;2.85;;;;;;;6.98;100.00;100577.34;5001443;28;20050;-64
2023/01/04 11:47:56;;;;;;;4.78;3.03;;;;;;;7.06;100.00;100568.25;5011007;28;20503;-63
2023/01/04 11:50:38;;;;;;;4.88;2.83;;;;;;;7.04;100.00;100564.84;4992611;28;20048;-64
2023/01/04 11:53:25;;;;;;;4.82;3.05;;;;;;;7.04;100.00;100562.25;4996114;28;20543;-63
2023/01/04 11:56:20;;;;;;;7.03;3.42;;;;;;;7.04;100.00;100543.91;4992242;28;20093;-63
2023/01/04 11:59:07;;;;;;;5.25;2.88;;;;;;;7.04;100.00;100541.31;4998036;28;20471;-64
2023/01/04 12:01:43;;;;;;;6.07;2.75;;;;;;;7.10;100.00;100541.00;4999598;28;20430;-63
2023/01/04 12:04:16;;;;;;;5.72;2.95;;;;;;;7.10;100.00;100532.31;4996527;28;20076;-63
2023/01/04 12:06:55;;;;;;;5.72;2.72;;;;;;;7.15;100.00;100519.00;4997973;28;20055;-63
2023/01/04 12:09:23;;;;;;;3.25;2.33;;;;;;;7.21;100.00;100511.72;4990855;28;20042;-63
2023/01/04 12:11:51;;;;;;;4.07;2.58;;;;;;;7.22;100.00;100513.44;5002992;28;20661;-64
2023/01/04 12:14:21;;;;;;;2.85;2.28;;;;;;;7.27;100.00;100511.44;5004758;28;20425;-64
2023/01/04 12:17:06;;;;;;;4.07;2.13;;;;;;;7.38;100.00;100508.28;5003322;28;20103;-64
2023/01/04 12:19:35;;;;;;;6.78;2.83;;;;;;;7.42;100.00;100507.22;5002285;28;20132;-63
2023/01/04 12:22:03;;;;;;;4.03;2.72;;;;;;;7.41;100.00;100494.22;4989695;28;20137;-64
2023/01/04 12:24:32;;;;;;;3.50;2.20;;;;;;;7.41;100.00;100497.69;4990943;28;20058;-64
2023/01/04 12:27:00;;;;;;;4.10;2.35;;;;;;;7.43;100.00;100513.31;4958202;28;20055;-64
2023/01/04 12:29:44;;;;;;;5.43;2.50;;;;;;;7.37;100.00;100498.75;4999669;28;20065;-63
2023/01/04 12:33:29;;;;;;;3.45;2.20;;;;;;;7.29;100.00;100493.88;4987032;28;20104;-63
2023/01/04 12:36:12;;;;;;;7.70;2.60;;;;;;;7.32;100.00;100477.19;4985285;28;20410;-63
2023/01/04 12:38:51;;;;;;;6.47;2.80;;;;;;;7.36;100.00;100474.34;4994157;28;20525;-64
2023/01/04 12:41:23;;;;;;;4.18;2.47;;;;;;;7.42;100.00;100472.34;4996844;28;20464;-64
2023/01/04 12:43:51;;;;;;;4.47;2.55;;;;;;;7.42;100.00;100467.94;5005720;28;20052;-64
2023/01/04 12:49:25;;;;;;;5.32;2.45;;;;;;;7.56;100.00;100459.41;4971667;28;20089;-64
2023/01/04 12:52:07;;;;;;;5.00;2.35;;;;;;;7.50;100.00;100489.38;4995385;28;20137;-70
2023/01/04 12:54:57;;;;;;;3.50;2.25;;;;;;;7.54;100.00;100456.03;4995962;28;20053;-64
2023/01/04 12:57:34;;;;;;;5.85;1.95;;;;;;;7.56;100.00;100446.31;5006914;22;20111;-62
2023/01/04 13:00:04;;;;;;;4.35;2.38;;;;;;;7.54;100.00;100443.78;5007027;28;20046;-64
2023/01/04 13:02:32;;;;;;;3.88;2.08;;;;;;;7.51;100.00;100443.94;5004744;28;20038;-66
2023/01/04 13:05:18;;;;;;;4.30;2.15;;;;;;;7.50;100.00;100442.22;5019446;28;20412;-63
2023/01/04 13:08:10;;;;;;;4.25;2.65;;;;;;;7.40;100.00;100448.84;5001134;28;20619;-63
2023/01/04 13:10:40;;;;;;;4.78;2.30;;;;;;;7.40;100.00;100414.81;4995557;28;20556;-64
2023/01/04 13:13:22;;;;;;;5.00;2.40;;;;;;;7.38;100.00;100419.25;4990387;28;20233;-64
2023/01/04 13:16:17;;;;;;;3.25;2.50;;;;;;;7.37;100.00;100417.56;4995287;28;20066;-64
2023/01/04 13:19:08;;;;;;;4.45;2.95;;;;;;;7.36;100.00;100415.88;4991912;28;20081;-64
2023/01/04 13:21:40;;;;;;;3.47;2.50;;;;;;;7.50;100.00;100402.09;4985365;28;20061;-63
2023/01/04 13:24:22;;;;;;;7.30;2.90;;;;;;;7.41;100.00;100403.41;4995426;28;20060;-64
2023/01/04 13:26:50;;;;;;;4.22;2.42;;;;;;;7.47;100.00;100423.19;5000437;28;20141;-63
2023/01/04 13:29:21;;;;;;;4.72;2.55;;;;;;;7.43;100.00;100409.44;4975188;28;20614;-64
2023/01/04 13:31:52;;;;;;;3.50;2.40;;;;;;;7.43;100.00;100401.56;4996696;28;20054;-63
2023/01/04 13:34:42;;;;;;;7.18;3.03;;;;;;;7.45;100.00;100404.94;4967877;28;20046;-63
2023/01/04 13:37:09;;;;;;;3.15;2.22;;;;;;;7.47;100.00;100394.38;4996489;28;20054;-63
2023/01/04 13:39:39;;;;;;;5.95;2.63;;;;;;;7.48;100.00;100394.34;4998106;28;20489;-63
2023/01/04 13:42:28;;;;;;;6.43;2.95;;;;;;;7.51;100.00;100381.06;4989174;28;20145;-64
2023/01/04 13:45:07;;;;;;;4.65;2.40;;;;;;;7.54;100.00;100396.63;4993938;28;20414;-63
2023/01/04 13:47:51;;;;;;;2.58;2.22;;;;;;;7.53;100.00;100400.19;4992975;28;20146;-62
2023/01/04 13:50:31;;;;;;;5.57;2.80;;;;;;;7.63;100.00;100373.53;4963584;28;20133;-62
2023/01/04 13:52:58;;;;;;;3.90;2.70;;;;;;;7.59;100.00;100376.28;5003901;28;20054;-63
2023/01/04 13:55:37;;;;;;;4.00;3.00;;;;;;;7.58;100.00;100384.22;4993713;28;20064;-64
2023/01/04 13:58:15;;;;;;;4.80;2.50;;;;;;;7.60;100.00;100388.47;4989928;28;20050;-64
2023/01/04 14:00:55;;;;;;;4.47;2.75;;;;;;;7.62;100.00;100362.19;4984779;28;20047;-63
2023/01/04 14:03:41;;;;;;;4.05;2.70;;;;;;;7.65;100.00;100362.03;4997667;28;20046;-64
2023/01/04 14:06:08;;;;;;;;;;;;;;;7.68;100.00;100385.47;4976297;28;20133;-64
2023/01/04 14:08:39;;;;;;;4.63;2.55;;;;;;;7.70;100.00;100367.91;4997133;28;19921;-64
2023/01/04 14:14:46;;;;;;;5.07;2.45;;;;;;;7.65;100.00;100367.25;4999165;28;20068;-64
2023/01/04 14:17:19;;;;;;;5.05;2.95;;;;;;;7.68;100.00;100354.03;4980753;28;20054;-64
2023/01/04 14:19:49;;;;;;;5.38;2.88;;;;;;;7.64;100.00;100373.44;4976144;28;20054;-64
2023/01/04 14:22:22;;;;;;;5.82;2.65;;;;;;;7.64;100.00;100356.88;5000722;28;20054;-64
2023/01/04 14:24:51;;;;;;;3.75;2.63;;;;;;;7.66;100.00;100363.75;5010830;28;20056;-64
2023/01/04 14:27:43;;;;;;;4.60;2.97;;;;;;;7.68;100.00;100363.66;4988246;28;20402;-63
2023/01/04 14:30:16;;;;;;;3.85;2.55;;;;;;;7.77;100.00;100348.31;5000054;28;20616;-63
2023/01/04 14:32:58;;;;;;;5.93;2.70;;;;;;;7.77;100.00;100352.69;4988583;28;20054;-62
2023/01/04 14:35:26;;;;;;;5.13;2.47;;;;;;;7.77;100.00;100348.31;4989721;28;20057;-62
2023/01/04 14:37:54;;;;;;;6.68;2.92;;;;;;;7.81;100.00;100364.72;4985932;28;20045;-63
2023/01/04 14:40:25;;;;;;;5.10;2.80;;;;;;;7.84;100.00;100356.72;4975462;28;20141;-63
2023/01/04 15:09:14;;;;;;;3.40;2.30;;;;;;;8.10;100.00;100309.00;4991597;28;20144;-62
2023/01/04 15:11:41;;;;;;;3.95;2.60;;;;;;;8.10;100.00;100309.00;4987014;28;20611;-64
2023/01/04 15:31:18;;;;;;;4.15;2.10;;;;;;;8.23;100.00;100297.84;4990274;28;20172;-64
2023/01/04 15:47:27;;;;;;;2.85;1.95;;;;;;;8.34;100.00;100270.09;4976482;28;20602;-63
2023/01/04 16:04:10;;;;;;;2.60;1.75;;;;;;;8.47;100.00;100237.97;4992972;28;20048;-63
2023/01/04 16:11:09;;;;;;;2.47;1.50;;;;;;;8.49;100.00;100238.72;4996869;28;20544;-63
2023/01/04 16:22:12;;;;;;;2.45;1.52;;;;;;;8.56;100.00;100222.56;5003823;28;20128;-62
2023/01/04 16:33:24;;;;;;;2.20;1.73;;;;;;;8.60;100.00;100205.72;4985568;28;20038;-64
2023/01/04 16:40:09;;;;;;;1.88;1.63;;;;;;;8.66;100.00;100190.53;4990760;28;20045;-63
2023/01/04 16:42:37;;;;;;;4.65;1.92;;;;;;;8.63;100.00;100191.56;4991775;28;20399;-63
2023/01/04 16:45:05;;;;;;;5.57;1.83;;;;;;;8.60;100.00;100187.34;4999767;28;20138;-63
2023/01/04 16:47:40;;;;;;;3.88;1.85;;;;;;;8.59;100.00;100169.88;4998417;28;20046;-62
2023/01/04 16:50:11;;;;;;;3.23;1.87;;;;;;;8.63;100.00;100167.94;4982181;28;20077;-64
2023/01/04 16:52:38;;;;;;;3.97;1.90;;;;;;;8.67;100.00;100172.06;4991605;28;20475;-64
2023/01/04 16:55:06;;;;;;;3.58;1.75;;;;;;;8.71;100.00;100168.34;4990266;28;20088;-64
2023/01/04 16:57:33;;;;;;;2.97;1.60;;;;;;;8.76;100.00;100168.06;4991768;28;20061;-63
2023/01/04 17:00:01;;;;;;;4.55;1.88;;;;;;;8.84;100.00;100152.72;4986514;28;20046;-61
2023/01/04 17:02:28;;;;;;;3.15;1.30;;;;;;;8.89;100.00;100161.16;4992618;28;20054;-62
2023/01/04 17:04:58;;;;;;;1.88;1.20;;;;;;;8.90;100.00;100146.25;4991324;28;20058;-65
2023/01/04 17:07:31;;;;;;;2.20;1.20;;;;;;;8.93;100.00;100154.81;5007920;28;20053;-63
2023/01/04 17:09:59;;;;;;;3.15;1.35;;;;;;;8.93;100.00;100143.47;4975409;28;20422;-63
2023/01/04 17:12:26;;;;;;;1.85;1.35;;;;;;;8.95;100.00;100155.53;4984028;28;20065;-63
2023/01/04 17:15:14;;;;;;;2.17;1.20;;;;;;;9.04;100.00;100152.34;4987831;28;20054;-64
2023/01/04 17:18:01;;;;;;;1.23;0.88;;;;;;;9.07;100.00;100133.81;4990448;28;20054;-62
2023/01/04 17:20:29;;;;;;;2.15;0.93;;;;;;;9.17;100.00;100139.34;4974136;28;20057;-64
2023/01/04 17:22:56;;;;;;;1.27;0.93;;;;;;;9.15;100.00;100125.47;4988436;28;20700;-63
2023/01/04 17:25:23;;;;;;;2.65;1.17;;;;;;;9.11;100.00;100124.81;4965127;28;20050;-63
2023/01/04 17:27:50;;;;;;;2.60;1.42;;;;;;;9.17;100.00;100138.50;4980393;28;20574;-62
2023/01/04 20:58:13;;;;;;;3.50;1.20;;;;;;;10.07;100.00;99973.25;4997788;28;20064;-66
2023/01/04 21:00:42;;;;;;;3.05;1.05;;;;;;;10.14;100.00;99985.06;5002315;28;20435;-64
2023/01/04 21:46:58;;;;;;;8.48;1.40;;;;;;;10.11;100.00;99963.38;5017945;28;20056;-65
